Terminal Aerodrome Forecast
Issued by NWS

Home | Current Version | Previous Version | Text Only | Print | Product List | Glossary On
Versions: 1 2 3 4 5 6 7 8 9 10 11 12 13 14 15 16 17 18 19
000
FTUS46 KLOX 062300 RRA
TAFPRB
TAF
KPRB 062340Z 0700/0724 20017G22KT P6SM SKC
     FM070300 28012KT P6SM SKC
     FM070500 29007KT P6SM SKC
     FM071000 30007KT P6SM OVC015
     FM071500 29007KT P6SM OVC025
     FM072100 27015KT P6SM VCSH BKN030 OVC040=

USA.gov is the U.S. government's official web portal to all federal, state and local government web resources and services.